Latest Weather Observations for Burnie Port

IDT60801

Issued at 4:02 pm EST Thursday 1 June 2017 (issued every 30 minutes, with the page automatically refreshed every 10 minutes)

About weather observations | Map of weather stations | Latest weather observations for TAS | Other Formats
Station Details ID: 091344 Name: BURNIE NTC AWS Lat: -41.05 Lon: 145.91 Height: 0.0 m
Data from the previous 72 hours. | See also: Recent months for locations in Tasmania
Date/Time
EST
Temp
°C
App
Temp
°C
Dew
Point
°C
Rel
Hum
%
Delta-T
°C
Wind Press
QNH
hPa
Press
MSL
hPa
Rain since
9am
mm
Dir  Spd
km/h
Gust
km/h
Spd
kts
Gust
kts
01/04:00pm 12.3 - - - - WNW 11 17 6 9 1032.6 1032.6 -
01/03:30pm 12.8 - - - - W 11 20 6 11 1032.5 1032.5 -
01/03:00pm 13.0 - - - - WSW 13 28 7 15 1032.4 1032.4 -
01/02:30pm 13.3 - - - - WSW 11 24 6 13 1032.3 1032.3 -
01/02:00pm 13.2 - - - - SW 11 19 6 10 1032.4 1032.4 -
01/01:30pm 12.5 - - - - NW 9 13 5 7 1032.6 1032.6 -
01/01:00pm 12.3 - - - - WNW 11 15 6 8 1032.9 1032.9 -
01/12:30pm 12.2 - - - - WNW 9 17 5 9 1033.2 1033.2 -
01/12:00pm 12.0 - - - - NW 13 17 7 9 1033.4 1033.4 -
01/11:30am 11.9 - - - - NW 15 20 8 11 1033.6 1033.6 -
01/11:00am 12.1 - - - - WNW 9 15 5 8 1034.0 1034.0 -
01/10:30am 11.8 - - - - NW 11 15 6 8 1034.0 1034.0 -
01/10:00am 11.6 - - - - WNW 13 19 7 10 1033.8 1033.8 -
01/09:30am 11.1 - - - - NW 15 19 8 10 1033.6 1033.6 -
01/09:00am 10.6 - - - - WNW 13 19 7 10 1033.6 1033.6 -
01/08:30am 10.1 - - - - WNW 13 19 7 10 1033.6 1033.6 -
01/08:00am 9.7 - - - - NW 15 19 8 10 1033.4 1033.4 -
01/07:30am 10.0 - - - - NW 11 15 6 8 1033.4 1033.4 -
01/07:00am 9.9 - - - - W 11 13 6 7 1033.3 1033.3 -
01/06:30am 9.7 - - - - WNW 9 15 5 8 1032.9 1032.9 -
01/06:00am 9.3 - - - - WNW 9 15 5 8 1032.8 1032.8 -
01/05:30am 9.2 - - - - WNW 9 13 5 7 1032.7 1032.7 -
01/05:00am 8.9 - - - - WNW 9 15 5 8 1032.7 1032.7 -
01/04:30am 8.9 - - - - W 6 11 3 6 1032.4 1032.4 -
01/04:00am 9.3 - - - - WNW 7 11 4 6 1032.3 1032.3 -
01/03:30am 8.9 - - - - WNW 7 11 4 6 1032.3 1032.3 -
01/03:00am 9.3 - - - - WNW 11 17 6 9 1032.4 1032.4 -
01/02:30am 9.3 - - - - WNW 9 15 5 8 1032.6 1032.6 -
01/02:00am 8.8 - - - - WNW 11 17 6 9 1032.5 1032.5 -
01/01:30am 8.9 - - - - WNW 11 20 6 11 1032.5 1032.5 -
01/01:00am 8.7 - - - - WNW 11 17 6 9 1032.3 1032.3 -
01/12:30am 8.5 - - - - W 11 17 6 9 1032.2 1032.2 -
01/12:00am 8.8 - - - - WNW 9 15 5 8 1032.5 1032.5 -
 
Date/Time
EST
Temp
°C
App
Temp
°C
Dew
Point
°C
Rel
Hum
%
Delta-T
°C
Wind Press
QNH
hPa
Press
MSL
hPa
Rain since
9am
mm
Dir  Spd
km/h
Gust
km/h
Spd
kts
Gust
kts
31/11:30pm 8.8 - - - - W 9 15 5 8 1032.6 1032.6 -
31/11:00pm 8.8 - - - - WSW 4 9 2 5 1032.5 1032.5 -
31/10:30pm 8.9 - - - - WNW 11 17 6 9 1032.6 1032.6 -
31/10:00pm 9.4 - - - - WNW 9 17 5 9 1033.0 1033.0 -
31/09:30pm 9.2 - - - - W 7 11 4 6 1032.9 1032.9 -
31/09:00pm 9.3 - - - - WNW 7 11 4 6 1032.9 1032.9 -
31/08:30pm 9.4 - - - - WNW 7 15 4 8 1032.6 1032.6 -
31/08:00pm 9.5 - - - - W 9 13 5 7 1032.6 1032.6 -
31/07:30pm 10.1 - - - - W 11 17 6 9 1032.4 1032.4 -
31/07:00pm 10.3 - - - - W 13 19 7 10 1032.1 1032.1 -
31/06:30pm 10.2 - - - - WNW 11 15 6 8 1031.8 1031.8 -
31/06:00pm 10.8 - - - - W 9 15 5 8 1031.4 1031.4 -
31/05:30pm 11.1 - - - - WSW 7 13 4 7 1031.3 1031.3 -
31/05:00pm 11.4 - - - - W 6 11 3 6 1030.8 1030.8 -
31/04:30pm 11.6 - - - - WSW 9 17 5 9 1030.4 1030.4 -
31/04:00pm 12.0 - - - - WSW 11 20 6 11 1030.2 1030.2 -
31/03:30pm 12.1 - - - - WSW 11 20 6 11 1030.0 1030.0 -
31/03:00pm 11.8 - - - - WSW 15 28 8 15 1029.6 1029.6 -
31/02:30pm 11.9 - - - - WSW 13 22 7 12 1029.5 1029.5 -
31/02:00pm 11.8 - - - - SSW 20 28 11 15 1029.4 1029.4 -
31/01:30pm 11.8 - - - - SW 20 32 11 17 1029.6 1029.6 -
31/01:00pm 12.1 - - - - SSW 26 35 14 19 1029.7 1029.7 -
31/12:57pm 12.0 - - - - SSW 28 43 15 23 1029.7 1029.7 -
31/12:30pm 12.2 - - - - SW 11 22 6 12 1029.8 1029.8 -
31/12:00pm 11.5 - - - - SW 17 24 9 13 1029.8 1029.8 -
31/11:30am 10.3 - - - - NNW 13 19 7 10 1030.1 1030.1 -
31/11:00am 9.3 - - - - NNW 17 20 9 11 1030.6 1030.6 -
31/10:30am 8.7 - - - - NW 15 20 8 11 1030.7 1030.7 -
31/10:00am 8.5 - - - - WNW 11 17 6 9 1030.8 1030.8 -
31/09:30am 7.8 - - - - W 15 20 8 11 1030.6 1030.6 -
31/09:00am 7.2 - - - - W 17 20 9 11 1030.4 1030.4 -
31/08:30am 6.9 - - - - W 15 22 8 12 1030.1 1030.1 -
31/08:00am 6.8 - - - - W 11 19 6 10 1029.7 1029.7 -
31/07:30am 6.3 - - - - WSW 11 17 6 9 1029.5 1029.5 -
31/07:00am 6.2 - - - - WSW 11 20 6 11 1029.0 1029.0 -
31/06:30am 6.2 - - - - WSW 11 19 6 10 1028.7 1028.7 -
31/06:00am 6.3 - - - - WSW 7 13 4 7 1028.5 1028.5 -
31/05:30am 6.4 - - - - W 11 15 6 8 1028.3 1028.3 -
31/05:00am 6.1 - - - - W 11 17 6 9 1028.0 1028.0 -
31/04:30am 5.7 - - - - W 11 19 6 10 1027.7 1027.7 -
31/04:00am 5.8 - - - - W 13 19 7 10 1027.5 1027.5 -
31/03:30am 5.6 - - - - WSW 4 9 2 5 1027.3 1027.3 -
31/03:00am 5.8 - - - - W 4 7 2 4 1027.4 1027.4 -
31/02:30am 5.9 - - - - SW 7 9 4 5 1027.3 1027.3 -
31/02:00am 6.7 - - - - SW 11 20 6 11 1027.0 1027.0 -
31/01:30am 7.0 - - - - WSW 15 22 8 12 1026.9 1026.9 -
31/01:00am 7.1 - - - - SW 24 35 13 19 1026.6 1026.6 -
31/12:30am 7.4 - - - - SW 26 35 14 19 1026.2 1026.2 -
31/12:00am 7.4 - - - - SW 26 39 14 21 1026.2 1026.2 -
 
Date/Time
EST
Temp
°C
App
Temp
°C
Dew
Point
°C
Rel
Hum
%
Delta-T
°C
Wind Press
QNH
hPa
Press
MSL
hPa
Rain since
9am
mm
Dir  Spd
km/h
Gust
km/h
Spd
kts
Gust
kts
30/11:30pm 7.2 - - - - SSW 13 24 7 13 1026.0 1026.0 -
30/11:00pm 7.0 - - - - W 4 7 2 4 1025.7 1025.7 -
30/10:30pm 6.1 - - - - W 2 4 1 2 1025.7 1025.7 -
30/10:00pm 6.8 - - - - W 6 9 3 5 1025.6 1025.6 -
30/09:30pm 6.7 - - - - W 7 11 4 6 1025.4 1025.4 -
30/09:00pm 7.0 - - - - W 6 9 3 5 1025.0 1025.0 -
30/08:30pm 6.9 - - - - NW 4 6 2 3 1024.6 1024.6 -
30/08:00pm 7.0 - - - - ESE 2 7 1 4 1024.3 1024.3 -
30/07:30pm 7.0 - - - - SW 7 13 4 7 1023.9 1023.9 -
30/07:00pm 7.4 - - - - SW 17 28 9 15 1023.2 1023.2 -
30/06:30pm 7.7 - - - - SW 19 30 10 16 1022.6 1022.6 -
30/06:00pm 8.2 - - - - SW 19 32 10 17 1022.2 1022.2 -
30/05:30pm 8.2 - - - - WSW 11 22 6 12 1021.9 1021.9 -
30/05:00pm 8.9 - - - - SW 13 22 7 12 1021.2 1021.2 -
30/04:30pm 9.5 - - - - SW 15 24 8 13 1020.7 1020.7 -
30/04:00pm 9.7 - - - - SSW 28 44 15 24 1020.3 1020.3 -
30/03:30pm 10.8 - - - - WSW 13 26 7 14 1019.6 1019.6 -
30/03:00pm 11.1 - - - - SW 17 30 9 16 1019.0 1019.0 -
30/02:30pm 11.0 - - - - SW 22 33 12 18 1018.4 1018.4 -
30/02:00pm 10.4 - - - - SW 17 33 9 18 1018.3 1018.3 -
30/01:30pm 10.1 - - - - WSW 13 20 7 11 1017.9 1017.9 -
30/01:00pm 10.0 - - - - WSW 13 32 7 17 1017.3 1017.3 -
30/12:30pm 10.1 - - - - WSW 13 33 7 18 1016.7 1016.7 -
30/12:00pm 10.2 - - - - SW 24 41 13 22 1016.3 1016.3 -
30/11:30am 10.4 - - - - SW 22 39 12 21 1016.4 1016.4 -
30/11:00am 10.3 - - - - SW 24 46 13 25 1016.4 1016.4 -
30/10:30am 10.4 - - - - SW 24 39 13 21 1015.8 1015.8 -
30/10:00am 10.2 - - - - WSW 20 39 11 21 1015.3 1015.3 -
30/09:30am 10.2 - - - - WSW 15 37 8 20 1014.5 1014.5 -
30/09:00am 9.4 - - - - WSW 13 24 7 13 1014.0 1014.0 -
30/08:30am 9.5 - - - - W 7 17 4 9 1013.4 1013.4 -
30/08:00am 9.6 - - - - WSW 9 19 5 10 1012.7 1012.7 -
30/07:30am 9.5 - - - - W 13 24 7 13 1012.3 1012.3 -
30/07:00am 9.5 - - - - WNW 17 24 9 13 1011.7 1011.7 -
30/06:30am 9.8 - - - - W 17 24 9 13 1010.6 1010.6 -
30/06:00am 10.4 - - - - W 13 24 7 13 1010.0 1010.0 -
30/05:30am 10.9 - - - - WSW 19 37 10 20 1009.8 1009.8 -
30/05:00am 11.3 - - - - WSW 28 46 15 25 1009.2 1009.2 -
30/04:30am 12.0 - - - - WSW 28 48 15 26 1008.6 1008.6 -
30/04:07am 12.3 - - - - NW 43 61 23 33 1008.6 1008.6 -
30/04:00am 13.4 - - - - NW 48 61 26 33 1008.5 1008.5 -
30/03:30am 13.9 - - - - NW 41 59 22 32 1008.8 1008.8 -
30/03:23am 14.1 - - - - NW 32 54 17 29 1009.1 1009.1 -
30/03:00am 12.9 - - - - NW 37 54 20 29 1009.6 1009.6 -
30/02:56am 13.4 - - - - WNW 26 48 14 26 1009.6 1009.6 -
30/02:30am 12.7 - - - - W 17 30 9 16 1010.1 1010.1 -

Other Formats:

Comma delimited format used in spreadsheet applications
http://www.bom.gov.au/fwo/IDT60801/IDT60801.95963.axf

JavaScript Object Notation format (JSON) in row-major order
http://www.bom.gov.au/fwo/IDT60801/IDT60801.95963.json